sensor_id;sensor_type;location;lat;lon;timestamp;P1;durP1;ratioP1;P2;durP2;ratioP2
70301;SDS011;57706;56.326;43.882;2022-11-06T06:39:55;3.50;;;2.33;;
70301;SDS011;57706;56.326;43.882;2022-11-06T06:42:21;3.60;;;2.60;;
70301;SDS011;57706;56.326;43.882;2022-11-06T06:44:46;3.50;;;2.55;;
70301;SDS011;57706;56.326;43.882;2022-11-06T06:47:12;3.78;;;2.92;;
70301;SDS011;57706;56.326;43.882;2022-11-06T06:49:41;5.47;;;2.60;;
70301;SDS011;57706;56.326;43.882;2022-11-06T06:52:08;3.40;;;2.47;;
70301;SDS011;57706;56.326;43.882;2022-11-06T06:54:35;3.92;;;2.72;;
70301;SDS011;57706;56.326;43.882;2022-11-06T06:57:00;6.88;;;3.05;;
70301;SDS011;57706;56.326;43.882;2022-11-06T06:59:26;6.10;;;3.22;;
70301;SDS011;57706;56.326;43.882;2022-11-06T07:01:53;4.80;;;3.22;;
70301;SDS011;57706;56.326;43.882;2022-11-06T07:04:19;6.60;;;3.20;;
70301;SDS011;57706;56.326;43.882;2022-11-06T07:06:45;5.28;;;3.28;;
70301;SDS011;57706;56.326;43.882;2022-11-06T07:09:11;6.25;;;3.38;;
70301;SDS011;57706;56.326;43.882;2022-11-06T07:11:36;5.22;;;3.67;;
70301;SDS011;57706;56.326;43.882;2022-11-06T07:14:02;10.77;;;4.15;;
70301;SDS011;57706;56.326;43.882;2022-11-06T07:16:28;5.35;;;3.53;;
70301;SDS011;57706;56.326;43.882;2022-11-06T07:18:54;5.88;;;4.03;;
70301;SDS011;57706;56.326;43.882;2022-11-06T07:21:20;6.60;;;4.38;;
70301;SDS011;57706;56.326;43.882;2022-11-06T07:23:46;8.50;;;4.47;;
70301;SDS011;57706;56.326;43.882;2022-11-06T07:26:12;9.23;;;4.03;;
70301;SDS011;57706;56.326;43.882;2022-11-06T07:28:38;8.25;;;4.43;;
70301;SDS011;57706;56.326;43.882;2022-11-06T07:31:05;8.60;;;4.55;;
70301;SDS011;57706;56.326;43.882;2022-11-06T07:33:32;7.82;;;4.18;;
70301;SDS011;57706;56.326;43.882;2022-11-06T07:36:05;7.97;;;4.72;;
70301;SDS011;57706;56.326;43.882;2022-11-06T07:38:37;8.77;;;4.78;;
70301;SDS011;57706;56.326;43.882;2022-11-06T07:41:06;6.72;;;4.32;;
70301;SDS011;57706;56.326;43.882;2022-11-06T07:43:34;6.57;;;4.15;;
70301;SDS011;57706;56.326;43.882;2022-11-06T07:46:01;7.90;;;4.90;;
70301;SDS011;57706;56.326;43.882;2022-11-06T07:48:28;7.47;;;4.43;;
70301;SDS011;57706;56.326;43.882;2022-11-06T07:50:55;9.93;;;4.55;;
70301;SDS011;57706;56.326;43.882;2022-11-06T07:53:21;7.40;;;4.20;;
70301;SDS011;57706;56.326;43.882;2022-11-06T07:55:50;9.10;;;4.25;;
70301;SDS011;57706;56.326;43.882;2022-11-06T07:58:17;11.07;;;5.00;;
70301;SDS011;57706;56.326;43.882;2022-11-06T08:03:17;10.90;;;5.10;;
70301;SDS011;57706;56.326;43.882;2022-11-06T08:05:43;7.88;;;4.95;;
70301;SDS011;57706;56.326;43.882;2022-11-06T08:08:10;8.55;;;5.15;;
70301;SDS011;57706;56.326;43.882;2022-11-06T08:10:36;8.15;;;5.93;;
70301;SDS011;57706;56.326;43.882;2022-11-06T08:13:05;9.48;;;6.28;;
70301;SDS011;57706;56.326;43.882;2022-11-06T08:15:32;13.35;;;6.18;;
70301;SDS011;57706;56.326;43.882;2022-11-06T08:17:58;8.63;;;5.28;;
70301;SDS011;57706;56.326;43.882;2022-11-06T08:20:24;12.57;;;5.90;;
70301;SDS011;57706;56.326;43.882;2022-11-06T08:22:50;9.52;;;5.28;;
70301;SDS011;57706;56.326;43.882;2022-11-06T08:25:16;13.73;;;5.47;;
70301;SDS011;57706;56.326;43.882;2022-11-06T08:27:42;12.35;;;5.72;;
70301;SDS011;57706;56.326;43.882;2022-11-06T08:30:08;8.60;;;5.50;;
70301;SDS011;57706;56.326;43.882;2022-11-06T08:32:34;8.27;;;5.63;;
70301;SDS011;57706;56.326;43.882;2022-11-06T08:35:00;9.45;;;6.05;;
70301;SDS011;57706;56.326;43.882;2022-11-06T08:37:44;9.57;;;5.63;;
70301;SDS011;57706;56.326;43.882;2022-11-06T08:40:10;8.13;;;5.90;;
70301;SDS011;57706;56.326;43.882;2022-11-06T08:42:38;9.13;;;6.22;;
70301;SDS011;57706;56.326;43.882;2022-11-06T08:45:04;10.65;;;5.80;;
70301;SDS011;57706;56.326;43.882;2022-11-06T08:47:30;8.30;;;5.30;;
70301;SDS011;57706;56.326;43.882;2022-11-06T08:49:56;13.30;;;6.03;;
70301;SDS011;57706;56.326;43.882;2022-11-06T08:52:22;9.98;;;5.97;;
70301;SDS011;57706;56.326;43.882;2022-11-06T08:54:48;9.68;;;5.90;;
70301;SDS011;57706;56.326;43.882;2022-11-06T08:57:14;8.95;;;5.85;;
70301;SDS011;57706;56.326;43.882;2022-11-06T08:59:40;10.30;;;7.03;;
70301;SDS011;57706;56.326;43.882;2022-11-06T09:02:05;10.13;;;6.75;;
70301;SDS011;57706;56.326;43.882;2022-11-06T09:04:35;10.52;;;6.72;;
70301;SDS011;57706;56.326;43.882;2022-11-06T09:07:01;13.55;;;7.18;;
70301;SDS011;57706;56.326;43.882;2022-11-06T09:09:26;9.90;;;5.70;;
70301;SDS011;57706;56.326;43.882;2022-11-06T09:11:59;16.48;;;7.75;;
70301;SDS011;57706;56.326;43.882;2022-11-06T09:14:26;11.23;;;7.28;;
70301;SDS011;57706;56.326;43.882;2022-11-06T09:16:52;16.65;;;8.32;;
70301;SDS011;57706;56.326;43.882;2022-11-06T09:19:18;13.73;;;7.75;;
70301;SDS011;57706;56.326;43.882;2022-11-06T09:21:45;11.98;;;7.32;;
70301;SDS011;57706;56.326;43.882;2022-11-06T09:24:11;11.18;;;6.82;;
70301;SDS011;57706;56.326;43.882;2022-11-06T09:26:37;12.50;;;7.43;;
70301;SDS011;57706;56.326;43.882;2022-11-06T09:29:02;14.02;;;6.80;;
70301;SDS011;57706;56.326;43.882;2022-11-06T09:31:28;12.10;;;6.95;;
70301;SDS011;57706;56.326;43.882;2022-11-06T09:33:54;15.57;;;7.60;;
70301;SDS011;57706;56.326;43.882;2022-11-06T09:36:20;19.90;;;8.00;;
70301;SDS011;57706;56.326;43.882;2022-11-06T09:38:46;13.07;;;8.43;;
70301;SDS011;57706;56.326;43.882;2022-11-06T09:41:21;14.80;;;8.43;;
70301;SDS011;57706;56.326;43.882;2022-11-06T09:46:44;17.50;;;10.13;;
70301;SDS011;57706;56.326;43.882;2022-11-06T09:49:22;13.30;;;8.35;;
70301;SDS011;57706;56.326;43.882;2022-11-06T09:52:02;13.45;;;8.98;;
70301;SDS011;57706;56.326;43.882;2022-11-06T09:57:50;14.00;;;8.23;;
70301;SDS011;57706;56.326;43.882;2022-11-06T10:00:14;12.90;;;8.57;;
70301;SDS011;57706;56.326;43.882;2022-11-06T10:02:48;15.65;;;10.43;;
70301;SDS011;57706;56.326;43.882;2022-11-06T10:05:25;18.27;;;9.30;;
70301;SDS011;57706;56.326;43.882;2022-11-06T10:07:58;13.50;;;8.70;;
70301;SDS011;57706;56.326;43.882;2022-11-06T10:15:50;12.65;;;8.65;;
70301;SDS011;57706;56.326;43.882;2022-11-06T10:21:14;13.88;;;8.80;;
70301;SDS011;57706;56.326;43.882;2022-11-06T10:23:47;15.80;;;9.10;;
70301;SDS011;57706;56.326;43.882;2022-11-06T10:26:41;14.23;;;9.20;;
70301;SDS011;57706;56.326;43.882;2022-11-06T10:29:57;25.15;;;9.68;;
70301;SDS011;57706;56.326;43.882;2022-11-06T10:32:08;15.90;;;9.55;;
70301;SDS011;57706;56.326;43.882;2022-11-06T10:35:14;14.80;;;9.45;;
70301;SDS011;57706;56.326;43.882;2022-11-06T10:40:34;15.88;;;8.88;;
70301;SDS011;57706;56.326;43.882;2022-11-06T10:45:33;13.15;;;8.05;;
70301;SDS011;57706;56.326;43.882;2022-11-06T10:48:05;13.05;;;9.32;;
70301;SDS011;57706;56.326;43.882;2022-11-06T10:51:07;15.57;;;7.95;;
70301;SDS011;57706;56.326;43.882;2022-11-06T10:56:46;14.60;;;7.88;;
70301;SDS011;57706;56.326;43.882;2022-11-06T10:59:37;15.75;;;8.57;;
70301;SDS011;57706;56.326;43.882;2022-11-06T11:02:03;17.02;;;10.60;;
70301;SDS011;57706;56.326;43.882;2022-11-06T11:04:47;14.80;;;8.48;;
70301;SDS011;57706;56.326;43.882;2022-11-06T11:07:13;15.77;;;9.07;;
70301;SDS011;57706;56.326;43.882;2022-11-06T11:09:40;15.25;;;7.82;;
70301;SDS011;57706;56.326;43.882;2022-11-06T11:12:18;13.52;;;8.50;;
70301;SDS011;57706;56.326;43.882;2022-11-06T11:17:41;14.20;;;7.25;;
70301;SDS011;57706;56.326;43.882;2022-11-06T11:23:28;10.77;;;7.03;;
70301;SDS011;57706;56.326;43.882;2022-11-06T11:25:54;14.30;;;7.03;;
70301;SDS011;57706;56.326;43.882;2022-11-06T11:28:24;12.55;;;6.80;;
70301;SDS011;57706;56.326;43.882;2022-11-06T11:30:57;10.77;;;5.57;;
70301;SDS011;57706;56.326;43.882;2022-11-06T11:33:34;12.10;;;7.10;;
70301;SDS011;57706;56.326;43.882;2022-11-06T11:36:01;10.02;;;6.43;;
70301;SDS011;57706;56.326;43.882;2022-11-06T11:38:49;8.55;;;5.47;;
70301;SDS011;57706;56.326;43.882;2022-11-06T11:46:30;10.40;;;6.93;;
70301;SDS011;57706;56.326;43.882;2022-11-06T11:48:57;8.23;;;5.07;;
70301;SDS011;57706;56.326;43.882;2022-11-06T11:54:38;7.90;;;4.28;;
70301;SDS011;57706;56.326;43.882;2022-11-06T11:56:52;10.00;;;5.30;;
70301;SDS011;57706;56.326;43.882;2022-11-06T12:02:00;7.60;;;5.18;;
70301;SDS011;57706;56.326;43.882;2022-11-06T12:04:38;6.55;;;4.53;;
70301;SDS011;57706;56.326;43.882;2022-11-06T12:07:11;7.88;;;5.13;;
70301;SDS011;57706;56.326;43.882;2022-11-06T12:09:49;7.78;;;5.38;;
70301;SDS011;57706;56.326;43.882;2022-11-06T12:12:33;12.15;;;5.43;;
70301;SDS011;57706;56.326;43.882;2022-11-06T12:17:42;11.90;;;5.63;;
70301;SDS011;57706;56.326;43.882;2022-11-06T12:20:13;13.70;;;6.30;;
70301;SDS011;57706;56.326;43.882;2022-11-06T12:22:44;8.88;;;5.90;;
70301;SDS011;57706;56.326;43.882;2022-11-06T12:25:15;11.77;;;6.65;;
70301;SDS011;57706;56.326;43.882;2022-11-06T12:27:56;8.90;;;5.78;;
70301;SDS011;57706;56.326;43.882;2022-11-06T12:30:24;9.48;;;6.15;;
70301;SDS011;57706;56.326;43.882;2022-11-06T12:33:10;9.45;;;6.57;;
70301;SDS011;57706;56.326;43.882;2022-11-06T12:35:41;10.38;;;5.75;;
70301;SDS011;57706;56.326;43.882;2022-11-06T12:38:14;8.23;;;5.68;;
70301;SDS011;57706;56.326;43.882;2022-11-06T12:40:49;9.55;;;6.22;;
70301;SDS011;57706;56.326;43.882;2022-11-06T12:43:22;9.10;;;5.80;;
70301;SDS011;57706;56.326;43.882;2022-11-06T12:54:19;7.32;;;4.97;;
70301;SDS011;57706;56.326;43.882;2022-11-06T13:00:11;6.80;;;4.32;;
70301;SDS011;57706;56.326;43.882;2022-11-06T13:08:50;4.68;;;3.13;;
70301;SDS011;57706;56.326;43.882;2022-11-06T13:11:47;7.65;;;4.35;;
70301;SDS011;57706;56.326;43.882;2022-11-06T13:14:34;8.07;;;5.00;;
70301;SDS011;57706;56.326;43.882;2022-11-06T13:20:13;8.50;;;4.15;;
70301;SDS011;57706;56.326;43.882;2022-11-06T13:23:08;9.18;;;4.40;;
70301;SDS011;57706;56.326;43.882;2022-11-06T13:28:41;5.68;;;4.35;;
70301;SDS011;57706;56.326;43.882;2022-11-06T13:31:10;11.27;;;4.38;;
70301;SDS011;57706;56.326;43.882;2022-11-06T13:33:41;12.40;;;5.70;;
70301;SDS011;57706;56.326;43.882;2022-11-06T13:36:13;11.88;;;5.03;;
70301;SDS011;57706;56.326;43.882;2022-11-06T13:38:41;6.80;;;3.97;;
70301;SDS011;57706;56.326;43.882;2022-11-06T13:41:21;9.75;;;4.28;;
70301;SDS011;57706;56.326;43.882;2022-11-06T13:43:59;10.20;;;4.72;;
70301;SDS011;57706;56.326;43.882;2022-11-06T13:46:30;12.50;;;5.63;;
70301;SDS011;57706;56.326;43.882;2022-11-06T13:57:33;8.85;;;5.82;;
70301;SDS011;57706;56.326;43.882;2022-11-06T14:00:21;7.05;;;4.40;;
70301;SDS011;57706;56.326;43.882;2022-11-06T14:07:57;8.52;;;5.57;;
70301;SDS011;57706;56.326;43.882;2022-11-06T14:10:48;9.32;;;5.13;;
70301;SDS011;57706;56.326;43.882;2022-11-06T14:13:29;8.68;;;4.65;;
70301;SDS011;57706;56.326;43.882;2022-11-06T14:19:05;8.80;;;5.28;;
70301;SDS011;57706;56.326;43.882;2022-11-06T14:22:15;8.40;;;5.63;;
70301;SDS011;57706;56.326;43.882;2022-11-06T14:24:42;10.75;;;4.85;;
70301;SDS011;57706;56.326;43.882;2022-11-06T14:27:12;13.45;;;6.22;;
70301;SDS011;57706;56.326;43.882;2022-11-06T14:32:35;9.48;;;5.50;;
70301;SDS011;57706;56.326;43.882;2022-11-06T14:40:39;9.70;;;4.45;;
70301;SDS011;57706;56.326;43.882;2022-11-06T14:43:22;7.35;;;4.53;;
70301;SDS011;57706;56.326;43.882;2022-11-06T14:48:42;7.03;;;4.63;;
70301;SDS011;57706;56.326;43.882;2022-11-06T14:51:28;8.45;;;4.88;;
70301;SDS011;57706;56.326;43.882;2022-11-06T14:53:55;7.97;;;4.65;;
70301;SDS011;57706;56.326;43.882;2022-11-06T14:56:30;9.68;;;5.30;;
70301;SDS011;57706;56.326;43.882;2022-11-06T14:59:00;8.05;;;5.65;;
70301;SDS011;57706;56.326;43.882;2022-11-06T15:03:57;8.02;;;5.38;;
70301;SDS011;57706;56.326;43.882;2022-11-06T15:06:37;12.30;;;6.97;;
70301;SDS011;57706;56.326;43.882;2022-11-06T15:09:11;13.95;;;6.85;;
70301;SDS011;57706;56.326;43.882;2022-11-06T15:19:06;9.00;;;4.95;;
70301;SDS011;57706;56.326;43.882;2022-11-06T15:21:41;11.95;;;4.60;;
70301;SDS011;57706;56.326;43.882;2022-11-06T15:24:23;8.77;;;5.32;;
70301;SDS011;57706;56.326;43.882;2022-11-06T15:26:53;8.88;;;4.82;;
70301;SDS011;57706;56.326;43.882;2022-11-06T15:29:25;6.85;;;4.53;;
70301;SDS011;57706;56.326;43.882;2022-11-06T15:32:03;7.25;;;4.97;;
70301;SDS011;57706;56.326;43.882;2022-11-06T15:34:43;10.82;;;4.72;;
70301;SDS011;57706;56.326;43.882;2022-11-06T15:37:20;9.20;;;4.20;;
70301;SDS011;57706;56.326;43.882;2022-11-06T15:39:52;11.20;;;5.20;;
70301;SDS011;57706;56.326;43.882;2022-11-06T15:42:22;7.90;;;4.32;;
70301;SDS011;57706;56.326;43.882;2022-11-06T15:44:51;9.75;;;4.65;;
70301;SDS011;57706;56.326;43.882;2022-11-06T15:47:32;13.65;;;6.40;;
70301;SDS011;57706;56.326;43.882;2022-11-06T15:50:18;10.10;;;4.68;;
70301;SDS011;57706;56.326;43.882;2022-11-06T15:55:40;13.55;;;5.15;;
70301;SDS011;57706;56.326;43.882;2022-11-06T16:00:41;23.67;;;12.52;;
70301;SDS011;57706;56.326;43.882;2022-11-06T16:03:12;10.23;;;5.30;;
70301;SDS011;57706;56.326;43.882;2022-11-06T16:05:42;13.40;;;5.28;;
70301;SDS011;57706;56.326;43.882;2022-11-06T16:08:10;8.20;;;4.75;;
70301;SDS011;57706;56.326;43.882;2022-11-06T16:10:38;11.15;;;5.32;;
70301;SDS011;57706;56.326;43.882;2022-11-06T16:13:05;8.75;;;4.85;;
70301;SDS011;57706;56.326;43.882;2022-11-06T16:26:15;12.38;;;5.97;;
70301;SDS011;57706;56.326;43.882;2022-11-06T16:28:43;10.27;;;5.47;;
70301;SDS011;57706;56.326;43.882;2022-11-06T16:31:15;8.55;;;5.00;;
70301;SDS011;57706;56.326;43.882;2022-11-06T16:34:03;9.05;;;5.38;;
70301;SDS011;57706;56.326;43.882;2022-11-06T16:36:46;9.02;;;5.53;;
70301;SDS011;57706;56.326;43.882;2022-11-06T16:44:44;10.05;;;6.38;;
70301;SDS011;57706;56.326;43.882;2022-11-06T16:49:43;9.07;;;5.55;;
70301;SDS011;57706;56.326;43.882;2022-11-06T16:54:56;8.30;;;5.47;;
70301;SDS011;57706;56.326;43.882;2022-11-06T16:57:45;9.15;;;5.43;;
70301;SDS011;57706;56.326;43.882;2022-11-06T17:02:49;11.23;;;6.20;;
70301;SDS011;57706;56.326;43.882;2022-11-06T17:07:43;13.05;;;9.10;;
70301;SDS011;57706;56.326;43.882;2022-11-06T17:10:30;9.52;;;5.85;;
70301;SDS011;57706;56.326;43.882;2022-11-06T17:13:33;10.73;;;5.85;;
70301;SDS011;57706;56.326;43.882;2022-11-06T17:16:01;11.73;;;7.80;;
70301;SDS011;57706;56.326;43.882;2022-11-06T17:18:33;10.00;;;6.05;;
70301;SDS011;57706;56.326;43.882;2022-11-06T17:21:04;9.02;;;6.07;;
70301;SDS011;57706;56.326;43.882;2022-11-06T17:23:38;9.68;;;5.85;;
70301;SDS011;57706;56.326;43.882;2022-11-06T17:26:15;13.60;;;7.68;;
70301;SDS011;57706;56.326;43.882;2022-11-06T17:28:48;10.18;;;6.32;;
70301;SDS011;57706;56.326;43.882;2022-11-06T17:31:15;8.27;;;5.30;;
70301;SDS011;57706;56.326;43.882;2022-11-06T17:33:42;7.00;;;4.93;;
70301;SDS011;57706;56.326;43.882;2022-11-06T17:36:13;8.25;;;4.90;;
70301;SDS011;57706;56.326;43.882;2022-11-06T17:38:43;9.52;;;4.28;;
70301;SDS011;57706;56.326;43.882;2022-11-06T17:41:10;6.32;;;3.72;;
70301;SDS011;57706;56.326;43.882;2022-11-06T17:43:36;12.30;;;5.20;;
70301;SDS011;57706;56.326;43.882;2022-11-06T17:46:02;9.80;;;6.00;;
70301;SDS011;57706;56.326;43.882;2022-11-06T17:48:28;11.60;;;5.68;;
70301;SDS011;57706;56.326;43.882;2022-11-06T17:50:54;8.52;;;5.55;;
70301;SDS011;57706;56.326;43.882;2022-11-06T17:53:38;9.15;;;5.25;;
70301;SDS011;57706;56.326;43.882;2022-11-06T17:56:05;9.75;;;4.60;;
70301;SDS011;57706;56.326;43.882;2022-11-06T17:58:31;10.48;;;4.22;;
70301;SDS011;57706;56.326;43.882;2022-11-06T18:01:04;6.50;;;4.05;;
70301;SDS011;57706;56.326;43.882;2022-11-06T18:03:35;12.38;;;4.95;;
70301;SDS011;57706;56.326;43.882;2022-11-06T18:06:10;8.35;;;4.75;;
70301;SDS011;57706;56.326;43.882;2022-11-06T18:08:37;12.05;;;5.30;;
70301;SDS011;57706;56.326;43.882;2022-11-06T18:11:04;9.13;;;4.93;;
70301;SDS011;57706;56.326;43.882;2022-11-06T18:13:30;8.77;;;4.65;;
70301;SDS011;57706;56.326;43.882;2022-11-06T18:15:56;8.43;;;5.57;;
70301;SDS011;57706;56.326;43.882;2022-11-06T18:18:22;6.90;;;4.95;;
70301;SDS011;57706;56.326;43.882;2022-11-06T18:20:49;8.32;;;5.00;;
70301;SDS011;57706;56.326;43.882;2022-11-06T18:23:15;7.72;;;4.50;;
70301;SDS011;57706;56.326;43.882;2022-11-06T18:25:41;8.07;;;4.57;;
70301;SDS011;57706;56.326;43.882;2022-11-06T18:28:07;9.55;;;5.63;;
70301;SDS011;57706;56.326;43.882;2022-11-06T18:30:36;8.23;;;5.22;;
70301;SDS011;57706;56.326;43.882;2022-11-06T18:33:03;8.02;;;5.00;;
70301;SDS011;57706;56.326;43.882;2022-11-06T18:35:28;16.52;;;5.82;;
70301;SDS011;57706;56.326;43.882;2022-11-06T18:37:54;10.05;;;5.75;;
70301;SDS011;57706;56.326;43.882;2022-11-06T18:40:20;11.55;;;4.45;;
70301;SDS011;57706;56.326;43.882;2022-11-06T18:42:46;11.85;;;5.47;;
70301;SDS011;57706;56.326;43.882;2022-11-06T18:45:12;11.50;;;5.43;;
70301;SDS011;57706;56.326;43.882;2022-11-06T18:47:37;9.20;;;5.63;;
70301;SDS011;57706;56.326;43.882;2022-11-06T18:50:03;9.18;;;5.35;;
70301;SDS011;57706;56.326;43.882;2022-11-06T18:52:30;11.38;;;6.00;;
70301;SDS011;57706;56.326;43.882;2022-11-06T18:54:56;13.15;;;6.18;;
70301;SDS011;57706;56.326;43.882;2022-11-06T18:57:23;14.50;;;6.43;;
70301;SDS011;57706;56.326;43.882;2022-11-06T18:59:49;11.57;;;5.70;;
70301;SDS011;57706;56.326;43.882;2022-11-06T19:02:15;11.18;;;5.53;;
70301;SDS011;57706;56.326;43.882;2022-11-06T19:04:42;10.55;;;5.63;;
70301;SDS011;57706;56.326;43.882;2022-11-06T19:07:08;9.23;;;4.97;;
70301;SDS011;57706;56.326;43.882;2022-11-06T19:09:34;10.80;;;6.85;;
70301;SDS011;57706;56.326;43.882;2022-11-06T19:11:59;15.98;;;7.28;;
70301;SDS011;57706;56.326;43.882;2022-11-06T19:14:25;12.68;;;6.80;;
70301;SDS011;57706;56.326;43.882;2022-11-06T19:16:51;11.70;;;6.30;;
70301;SDS011;57706;56.326;43.882;2022-11-06T19:19:17;11.38;;;6.85;;
70301;SDS011;57706;56.326;43.882;2022-11-06T19:21:42;11.75;;;6.68;;
70301;SDS011;57706;56.326;43.882;2022-11-06T19:24:12;11.13;;;6.85;;
70301;SDS011;57706;56.326;43.882;2022-11-06T19:26:39;11.63;;;6.68;;
70301;SDS011;57706;56.326;43.882;2022-11-06T19:29:05;11.18;;;5.70;;
70301;SDS011;57706;56.326;43.882;2022-11-06T19:31:32;12.15;;;7.07;;
70301;SDS011;57706;56.326;43.882;2022-11-06T19:33:59;12.05;;;7.18;;
70301;SDS011;57706;56.326;43.882;2022-11-06T19:36:26;14.70;;;7.63;;
70301;SDS011;57706;56.326;43.882;2022-11-06T19:38:53;11.05;;;6.18;;
70301;SDS011;57706;56.326;43.882;2022-11-06T19:41:21;13.15;;;7.15;;
70301;SDS011;57706;56.326;43.882;2022-11-06T19:43:47;15.02;;;7.47;;
70301;SDS011;57706;56.326;43.882;2022-11-06T19:46:13;19.45;;;7.32;;
70301;SDS011;57706;56.326;43.882;2022-11-06T19:48:41;12.70;;;7.07;;
70301;SDS011;57706;56.326;43.882;2022-11-06T19:51:11;16.50;;;7.65;;
70301;SDS011;57706;56.326;43.882;2022-11-06T19:53:39;13.30;;;7.15;;
70301;SDS011;57706;56.326;43.882;2022-11-06T19:56:06;13.38;;;6.28;;
70301;SDS011;57706;56.326;43.882;2022-11-06T19:58:33;13.70;;;7.00;;
70301;SDS011;57706;56.326;43.882;2022-11-06T20:00:59;13.07;;;7.65;;
70301;SDS011;57706;56.326;43.882;2022-11-06T20:03:29;13.63;;;7.18;;
70301;SDS011;57706;56.326;43.882;2022-11-06T20:05:55;11.05;;;6.53;;
70301;SDS011;57706;56.326;43.882;2022-11-06T20:08:21;13.70;;;7.43;;
70301;SDS011;57706;56.326;43.882;2022-11-06T20:10:47;13.95;;;6.85;;
70301;SDS011;57706;56.326;43.882;2022-11-06T20:13:13;12.60;;;6.75;;
70301;SDS011;57706;56.326;43.882;2022-11-06T20:15:39;13.80;;;7.00;;
70301;SDS011;57706;56.326;43.882;2022-11-06T20:18:04;18.52;;;7.38;;
70301;SDS011;57706;56.326;43.882;2022-11-06T20:20:30;11.43;;;6.80;;
70301;SDS011;57706;56.326;43.882;2022-11-06T20:22:56;11.63;;;6.72;;
70301;SDS011;57706;56.326;43.882;2022-11-06T20:25:22;16.45;;;7.47;;
70301;SDS011;57706;56.326;43.882;2022-11-06T20:27:48;12.60;;;7.20;;
70301;SDS011;57706;56.326;43.882;2022-11-06T20:30:14;11.82;;;6.75;;
70301;SDS011;57706;56.326;43.882;2022-11-06T20:32:40;11.73;;;6.45;;
70301;SDS011;57706;56.326;43.882;2022-11-06T20:35:06;14.55;;;6.85;;
70301;SDS011;57706;56.326;43.882;2022-11-06T20:37:32;12.40;;;7.25;;
70301;SDS011;57706;56.326;43.882;2022-11-06T20:39:58;9.95;;;5.40;;
70301;SDS011;57706;56.326;43.882;2022-11-06T20:42:24;9.23;;;6.05;;
70301;SDS011;57706;56.326;43.882;2022-11-06T20:44:50;11.95;;;7.05;;
70301;SDS011;57706;56.326;43.882;2022-11-06T20:47:16;11.85;;;6.68;;
70301;SDS011;57706;56.326;43.882;2022-11-06T20:49:42;12.32;;;7.22;;
70301;SDS011;57706;56.326;43.882;2022-11-06T20:52:08;10.52;;;6.25;;
70301;SDS011;57706;56.326;43.882;2022-11-06T20:54:34;10.77;;;6.10;;
70301;SDS011;57706;56.326;43.882;2022-11-06T20:57:00;12.75;;;6.45;;
70301;SDS011;57706;56.326;43.882;2022-11-06T20:59:26;9.30;;;4.82;;
70301;SDS011;57706;56.326;43.882;2022-11-06T21:01:52;11.68;;;5.72;;
70301;SDS011;57706;56.326;43.882;2022-11-06T21:04:18;9.60;;;4.93;;
70301;SDS011;57706;56.326;43.882;2022-11-06T21:06:45;7.72;;;3.85;;
70301;SDS011;57706;56.326;43.882;2022-11-06T21:09:11;10.45;;;6.00;;
70301;SDS011;57706;56.326;43.882;2022-11-06T21:11:37;8.68;;;5.90;;
70301;SDS011;57706;56.326;43.882;2022-11-06T21:14:02;8.93;;;4.95;;
70301;SDS011;57706;56.326;43.882;2022-11-06T21:16:30;9.95;;;5.20;;
70301;SDS011;57706;56.326;43.882;2022-11-06T21:18:57;10.25;;;5.40;;
70301;SDS011;57706;56.326;43.882;2022-11-06T21:21:24;14.38;;;6.05;;
70301;SDS011;57706;56.326;43.882;2022-11-06T21:23:52;6.50;;;4.28;;
70301;SDS011;57706;56.326;43.882;2022-11-06T21:26:23;8.48;;;5.25;;
70301;SDS011;57706;56.326;43.882;2022-11-06T21:28:50;8.70;;;5.82;;
70301;SDS011;57706;56.326;43.882;2022-11-06T21:31:21;7.78;;;5.82;;
70301;SDS011;57706;56.326;43.882;2022-11-06T21:33:50;12.02;;;6.82;;
70301;SDS011;57706;56.326;43.882;2022-11-06T21:36:18;7.20;;;4.68;;
70301;SDS011;57706;56.326;43.882;2022-11-06T21:38:56;9.07;;;5.40;;
70301;SDS011;57706;56.326;43.882;2022-11-06T21:41:24;8.95;;;5.72;;
70301;SDS011;57706;56.326;43.882;2022-11-06T21:43:52;9.23;;;5.15;;
70301;SDS011;57706;56.326;43.882;2022-11-06T21:46:18;9.23;;;5.88;;
70301;SDS011;57706;56.326;43.882;2022-11-06T21:48:45;11.48;;;6.40;;
70301;SDS011;57706;56.326;43.882;2022-11-06T21:51:17;9.60;;;5.63;;
70301;SDS011;57706;56.326;43.882;2022-11-06T21:53:46;10.50;;;6.20;;
70301;SDS011;57706;56.326;43.882;2022-11-06T21:56:31;10.27;;;6.82;;
70301;SDS011;57706;56.326;43.882;2022-11-06T21:58:58;13.10;;;7.28;;
70301;SDS011;57706;56.326;43.882;2022-11-06T22:01:25;12.73;;;7.22;;
70301;SDS011;57706;56.326;43.882;2022-11-06T22:03:52;12.50;;;6.35;;
70301;SDS011;57706;56.326;43.882;2022-11-06T22:06:20;11.23;;;6.60;;
70301;SDS011;57706;56.326;43.882;2022-11-06T22:08:48;12.80;;;7.80;;
70301;SDS011;57706;56.326;43.882;2022-11-06T22:11:17;10.93;;;6.30;;
70301;SDS011;57706;56.326;43.882;2022-11-06T22:13:46;11.90;;;7.28;;
70301;SDS011;57706;56.326;43.882;2022-11-06T22:16:33;12.65;;;7.15;;
70301;SDS011;57706;56.326;43.882;2022-11-06T22:19:01;16.40;;;7.85;;
70301;SDS011;57706;56.326;43.882;2022-11-06T22:21:28;13.88;;;6.85;;
70301;SDS011;57706;56.326;43.882;2022-11-06T22:23:55;15.05;;;7.63;;
70301;SDS011;57706;56.326;43.882;2022-11-06T22:26:28;12.82;;;7.28;;
70301;SDS011;57706;56.326;43.882;2022-11-06T22:28:56;13.40;;;7.47;;
70301;SDS011;57706;56.326;43.882;2022-11-06T22:31:24;12.88;;;7.15;;
70301;SDS011;57706;56.326;43.882;2022-11-06T22:33:51;13.95;;;7.43;;
70301;SDS011;57706;56.326;43.882;2022-11-06T22:36:17;15.05;;;7.95;;
70301;SDS011;57706;56.326;43.882;2022-11-06T22:38:48;15.80;;;7.20;;
70301;SDS011;57706;56.326;43.882;2022-11-06T22:41:33;16.58;;;8.02;;
70301;SDS011;57706;56.326;43.882;2022-11-06T22:43:59;14.77;;;7.68;;
70301;SDS011;57706;56.326;43.882;2022-11-06T22:46:25;11.63;;;6.65;;
70301;SDS011;57706;56.326;43.882;2022-11-06T22:48:51;16.90;;;9.35;;
70301;SDS011;57706;56.326;43.882;2022-11-06T22:51:22;14.88;;;7.82;;
70301;SDS011;57706;56.326;43.882;2022-11-06T22:53:49;29.30;;;8.93;;
70301;SDS011;57706;56.326;43.882;2022-11-06T22:56:16;14.75;;;7.75;;
70301;SDS011;57706;56.326;43.882;2022-11-06T22:58:42;16.58;;;8.90;;
70301;SDS011;57706;56.326;43.882;2022-11-06T23:01:09;18.65;;;10.48;;
70301;SDS011;57706;56.326;43.882;2022-11-06T23:03:35;15.80;;;9.18;;
70301;SDS011;57706;56.326;43.882;2022-11-06T23:06:03;18.42;;;9.88;;
70301;SDS011;57706;56.326;43.882;2022-11-06T23:08:31;22.40;;;11.05;;
70301;SDS011;57706;56.326;43.882;2022-11-06T23:10:57;20.67;;;9.63;;
70301;SDS011;57706;56.326;43.882;2022-11-06T23:13:23;18.25;;;9.60;;
70301;SDS011;57706;56.326;43.882;2022-11-06T23:15:49;20.10;;;9.55;;
70301;SDS011;57706;56.326;43.882;2022-11-06T23:18:16;17.55;;;10.13;;
70301;SDS011;57706;56.326;43.882;2022-11-06T23:20:42;17.52;;;9.30;;
70301;SDS011;57706;56.326;43.882;2022-11-06T23:23:08;16.27;;;9.52;;
70301;SDS011;57706;56.326;43.882;2022-11-06T23:25:34;18.65;;;10.13;;
70301;SDS011;57706;56.326;43.882;2022-11-06T23:28:00;15.93;;;7.65;;
70301;SDS011;57706;56.326;43.882;2022-11-06T23:30:26;18.15;;;9.23;;
70301;SDS011;57706;56.326;43.882;2022-11-06T23:32:56;17.80;;;9.60;;
70301;SDS011;57706;56.326;43.882;2022-11-06T23:35:22;15.48;;;9.32;;
70301;SDS011;57706;56.326;43.882;2022-11-06T23:37:48;21.42;;;11.68;;
70301;SDS011;57706;56.326;43.882;2022-11-06T23:40:14;18.55;;;9.68;;